createdAt,value
2023-04-16T00:00:40.094Z,96570.41
2023-04-16T00:03:06.745Z,96548.97
2023-04-16T00:05:33.548Z,96551.38
2023-04-16T00:08:00.110Z,96543.63
2023-04-16T00:10:26.812Z,96548.91
2023-04-16T00:12:53.394Z,96546.19
2023-04-16T00:15:20.031Z,96445.91
2023-04-16T00:17:46.706Z,96557.53
2023-04-16T00:20:13.414Z,96499.28
2023-04-16T00:22:40.026Z,96539.66
2023-04-16T00:25:06.899Z,96539.94
2023-04-16T00:27:33.559Z,96490.69
2023-04-16T00:30:00.230Z,96538.41
2023-04-16T00:32:26.822Z,96488.19
2023-04-16T00:34:53.460Z,96424.19
2023-04-16T00:37:20.127Z,96536.00
2023-04-16T00:39:46.740Z,96526.03
2023-04-16T00:42:13.360Z,96529.75
2023-04-16T00:44:39.965Z,96533.22
2023-04-16T00:47:07.728Z,96532.13
2023-04-16T00:49:34.892Z,96527.78
2023-04-16T00:52:03.250Z,96538.34
2023-04-16T00:54:31.347Z,96532.81
2023-04-16T00:56:59.650Z,96529.34
2023-04-16T00:59:27.091Z,96514.53
2023-04-16T01:01:54.050Z,96475.41
2023-04-16T01:04:21.366Z,96518.28
2023-04-16T01:06:48.224Z,96541.66
2023-04-16T01:09:14.843Z,96534.25
2023-04-16T01:11:41.409Z,96528.53
2023-04-16T01:14:08.055Z,96510.22
2023-04-16T01:16:34.631Z,96472.88
2023-04-16T01:19:01.287Z,96470.66
2023-04-16T01:21:28.029Z,96524.06
2023-04-16T01:23:54.594Z,96529.56
2023-04-16T01:26:21.627Z,96528.81
2023-04-16T01:28:48.287Z,96526.88
2023-04-16T01:31:14.916Z,96525.69
2023-04-16T01:33:41.570Z,96530.47
2023-04-16T01:36:08.123Z,96535.97
2023-04-16T01:38:34.759Z,96491.44
2023-04-16T01:41:01.967Z,96532.03
2023-04-16T01:43:28.622Z,96536.84
2023-04-16T01:46:12.199Z,96535.31
2023-04-16T01:48:38.866Z,96405.03
2023-04-16T01:51:05.726Z,96346.53
2023-04-16T01:53:32.369Z,96479.31
2023-04-16T01:55:58.958Z,96541.31
2023-04-16T01:58:25.515Z,96468.31
2023-04-16T02:00:52.171Z,96468.25
2023-04-16T02:03:18.873Z,96427.81
2023-04-16T02:05:45.813Z,96532.03
2023-04-16T02:08:12.392Z,96475.56
2023-04-16T02:10:38.953Z,96434.28
2023-04-16T02:13:05.526Z,96533.69
2023-04-16T02:15:32.134Z,96440.50
2023-04-16T02:17:58.784Z,96479.97
2023-04-16T02:20:25.697Z,96477.22
2023-04-16T02:22:52.342Z,96444.47
2023-04-16T02:25:18.972Z,96447.41
2023-04-16T02:27:45.725Z,96491.31
2023-04-16T02:30:12.665Z,96505.00
2023-04-16T02:32:39.282Z,96455.63
2023-04-16T02:35:06.597Z,96531.09
2023-04-16T02:37:33.187Z,96522.28
2023-04-16T02:39:59.819Z,96522.28
2023-04-16T02:42:26.451Z,96518.06
2023-04-16T02:44:53.000Z,96509.72
2023-04-16T02:47:19.633Z,96478.78
2023-04-16T02:49:46.266Z,96505.84
2023-04-16T02:52:15.114Z,96518.56
2023-04-16T02:54:42.311Z,96512.88
2023-04-16T02:57:08.915Z,96515.38
2023-04-16T02:59:35.627Z,96512.31
2023-04-16T03:02:02.248Z,96522.56
2023-04-16T03:04:28.920Z,96481.91
2023-04-16T03:06:55.494Z,96495.88
2023-04-16T03:09:22.042Z,96521.69
2023-04-16T03:11:48.605Z,96520.91
2023-04-16T03:14:15.506Z,96478.78
2023-04-16T03:16:42.100Z,96528.16
2023-04-16T03:19:08.835Z,96509.19
2023-04-16T03:21:35.677Z,96535.00
2023-04-16T03:24:02.302Z,96474.06
2023-04-16T03:26:28.893Z,96534.53
2023-04-16T03:28:55.487Z,96536.19
2023-04-16T03:31:24.548Z,96539.75
2023-04-16T03:33:51.829Z,96526.91
2023-04-16T03:36:18.426Z,96536.81
2023-04-16T03:38:45.025Z,96538.34
2023-04-16T03:41:11.580Z,96523.34
2023-04-16T03:43:38.186Z,96490.72
2023-04-16T03:46:04.918Z,96541.09
2023-04-16T03:48:31.576Z,96528.31
2023-04-16T03:50:58.150Z,96539.19
2023-04-16T03:53:24.833Z,96436.16
2023-04-16T03:55:52.044Z,96528.94
2023-04-16T03:58:18.982Z,96538.34
2023-04-16T04:00:45.980Z,96544.69
2023-04-16T04:03:13.485Z,96544.34
2023-04-16T04:05:41.220Z,96551.06
2023-04-16T04:08:08.289Z,96333.13
2023-04-16T04:10:37.688Z,96551.16
2023-04-16T04:13:06.135Z,96559.16
2023-04-16T04:15:32.938Z,96559.63
2023-04-16T04:18:00.141Z,96561.47
2023-04-16T04:20:26.849Z,96539.16
2023-04-16T04:22:53.424Z,96395.00
2023-04-16T04:25:20.009Z,96545.34
2023-04-16T04:27:46.600Z,96568.06
2023-04-16T04:30:13.227Z,96574.13
2023-04-16T04:32:39.817Z,96567.94
2023-04-16T04:35:06.982Z,96574.34
2023-04-16T04:37:33.568Z,96574.34
2023-04-16T04:40:00.198Z,96577.50
2023-04-16T04:42:27.283Z,96585.94
2023-04-16T04:44:53.908Z,96490.22
2023-04-16T04:47:20.563Z,96570.56
2023-04-16T04:49:47.132Z,96580.16
2023-04-16T04:52:14.184Z,96557.94
2023-04-16T04:54:41.807Z,96528.66
2023-04-16T04:57:08.843Z,96558.63
2023-04-16T04:59:35.451Z,96572.09
2023-04-16T05:02:03.418Z,96514.88
2023-04-16T05:04:31.372Z,96572.63
2023-04-16T05:06:58.094Z,96564.81
2023-04-16T05:09:24.770Z,96539.00
2023-04-16T05:11:51.416Z,96555.34
2023-04-16T05:14:18.103Z,96436.97
2023-04-16T05:16:44.816Z,96556.50
2023-04-16T05:19:11.663Z,96555.34
2023-04-16T05:21:38.447Z,96560.13
2023-04-16T05:24:05.329Z,96568.09
2023-04-16T05:26:31.945Z,96561.72
2023-04-16T05:28:58.551Z,96557.75
2023-04-16T05:31:25.195Z,96455.28
2023-04-16T05:33:51.797Z,96544.22
2023-04-16T05:36:18.465Z,96562.91
2023-04-16T05:38:45.075Z,96531.53
2023-04-16T05:41:11.736Z,96549.41
2023-04-16T05:43:38.370Z,96552.94
2023-04-16T05:46:05.026Z,96553.72
2023-04-16T05:48:31.695Z,96558.47
2023-04-16T05:50:58.367Z,96516.78
2023-04-16T05:53:25.419Z,96553.28
2023-04-16T05:55:52.131Z,96553.72
2023-04-16T05:58:18.665Z,96558.50
2023-04-16T06:00:45.551Z,96515.63
2023-04-16T06:03:12.302Z,96552.94
2023-04-16T06:05:39.176Z,96560.91
2023-04-16T06:08:05.810Z,96556.94
2023-04-16T06:10:32.403Z,96547.78
2023-04-16T06:12:59.000Z,96560.06
2023-04-16T06:15:25.644Z,96535.38
2023-04-16T06:17:52.429Z,96518.81
2023-04-16T06:20:19.025Z,96564.06
2023-04-16T06:22:45.830Z,96556.91
2023-04-16T06:25:12.517Z,96557.72
2023-04-16T06:27:39.426Z,96525.16
2023-04-16T06:30:11.356Z,96483.50
2023-04-16T06:32:38.118Z,96541.81
2023-04-16T06:35:05.377Z,96554.13
2023-04-16T06:37:32.107Z,96560.53
2023-04-16T06:39:58.698Z,96554.56
2023-04-16T06:42:25.516Z,96553.63
2023-04-16T06:44:52.145Z,96481.44
2023-04-16T06:47:19.117Z,96549.22
2023-04-16T06:49:45.826Z,96470.34
2023-04-16T06:52:12.700Z,96483.00
2023-04-16T06:54:39.673Z,96558.31
2023-04-16T06:57:06.281Z,96549.50
2023-04-16T06:59:32.880Z,96528.91
2023-04-16T07:01:59.541Z,96457.50
2023-04-16T07:04:26.250Z,96520.03
2023-04-16T07:06:52.912Z,96530.00
2023-04-16T07:09:19.645Z,96535.91
2023-04-16T07:11:47.175Z,96528.75
2023-04-16T07:14:13.801Z,96428.16
2023-04-16T07:16:40.814Z,96546.28
2023-04-16T07:19:07.574Z,96536.41
2023-04-16T07:21:34.457Z,96539.09
2023-04-16T07:24:01.090Z,96541.13
2023-04-16T07:26:27.714Z,96527.91
2023-04-16T07:28:54.389Z,96532.38
2023-04-16T07:31:21.067Z,96543.78
2023-04-16T07:33:47.830Z,96552.50
2023-04-16T07:36:16.555Z,96213.84
2023-04-16T07:38:43.138Z,96524.63
2023-04-16T07:41:09.911Z,96530.88
2023-04-16T07:43:36.726Z,96494.84
2023-04-16T07:46:03.413Z,96506.69
2023-04-16T07:48:30.053Z,96532.59
2023-04-16T07:50:56.937Z,96494.53
2023-04-16T07:53:23.553Z,96523.75
2023-04-16T07:55:50.157Z,96525.69
2023-04-16T07:58:16.770Z,96521.94
2023-04-16T08:00:43.450Z,96518.03
2023-04-16T08:03:10.237Z,96517.31
2023-04-16T08:05:36.965Z,96508.03
2023-04-16T08:08:03.676Z,96445.31
2023-04-16T08:10:30.235Z,96520.72
2023-04-16T08:12:57.099Z,96515.56
2023-04-16T08:15:23.757Z,96504.28
2023-04-16T08:17:50.731Z,96455.66
2023-04-16T08:20:19.206Z,96509.06
2023-04-16T08:22:46.503Z,96470.69
2023-04-16T08:25:13.156Z,96513.66
2023-04-16T08:27:39.750Z,96475.19
2023-04-16T08:30:07.235Z,96510.81
2023-04-16T08:32:34.024Z,96496.22
2023-04-16T08:35:00.927Z,96512.97
2023-04-16T08:37:28.066Z,96456.44
2023-04-16T08:39:54.742Z,96438.94
2023-04-16T08:42:31.516Z,96497.00
2023-04-16T08:45:08.298Z,96513.63
2023-04-16T08:47:39.193Z,96455.09
2023-04-16T08:50:06.680Z,96512.56
2023-04-16T08:52:37.849Z,96512.00
2023-04-16T08:55:13.483Z,96520.47
2023-04-16T08:57:47.503Z,96450.25
2023-04-16T09:00:14.866Z,96446.69
2023-04-16T09:02:43.018Z,96491.56
2023-04-16T09:05:11.385Z,96492.03
2023-04-16T09:07:38.756Z,96479.06
2023-04-16T09:10:08.317Z,96544.75
2023-04-16T09:12:35.867Z,96433.19
2023-04-16T09:15:03.598Z,96444.97
2023-04-16T09:17:30.359Z,96492.78
2023-04-16T09:19:57.049Z,96419.56
2023-04-16T09:22:23.682Z,96449.66
2023-04-16T09:24:50.366Z,96483.53
2023-04-16T09:27:17.569Z,96493.72
2023-04-16T09:29:44.333Z,96493.00
2023-04-16T09:32:12.454Z,96487.38
2023-04-16T09:34:56.559Z,96378.13
2023-04-16T09:37:24.735Z,96481.53
2023-04-16T09:39:57.034Z,96474.34
2023-04-16T09:42:25.606Z,96416.06
2023-04-16T09:44:52.938Z,96490.28
2023-04-16T09:47:20.100Z,96480.91
2023-04-16T09:49:47.248Z,96474.84
2023-04-16T09:52:21.143Z,96450.22
2023-04-16T09:54:51.926Z,96478.69
2023-04-16T09:57:21.216Z,96477.28
2023-04-16T10:00:09.315Z,96473.19
2023-04-16T10:02:39.424Z,96469.50
2023-04-16T10:05:06.541Z,96475.72
2023-04-16T10:07:37.290Z,96476.44
2023-04-16T10:10:04.760Z,96461.78
2023-04-16T10:12:33.122Z,96447.22
2023-04-16T10:15:00.222Z,96462.56
2023-04-16T10:17:30.106Z,96434.84
2023-04-16T10:19:58.596Z,96476.88
2023-04-16T10:22:26.255Z,96471.44
2023-04-16T10:24:54.880Z,96465.47
2023-04-16T10:27:21.715Z,96465.09
2023-04-16T10:29:49.618Z,96341.06
2023-04-16T10:32:17.905Z,96461.16
2023-04-16T10:34:45.951Z,96466.69
2023-04-16T10:37:12.697Z,96458.31
2023-04-16T10:39:39.473Z,96460.81
2023-04-16T10:42:10.056Z,96455.84
2023-04-16T10:44:36.638Z,96469.22
2023-04-16T10:47:09.770Z,96451.97
2023-04-16T10:49:36.338Z,96463.13
2023-04-16T10:52:17.070Z,96416.22
2023-04-16T10:54:44.065Z,96380.63
2023-04-16T10:57:16.299Z,96380.19
2023-04-16T10:59:44.608Z,96457.31
2023-04-16T11:02:17.899Z,96412.53
2023-04-16T11:04:46.712Z,96463.28
2023-04-16T11:07:17.815Z,96385.56
2023-04-16T11:09:53.411Z,96499.34
2023-04-16T11:12:44.972Z,96456.09
2023-04-16T11:15:13.955Z,96450.03
2023-04-16T11:17:43.612Z,96450.28
2023-04-16T11:20:19.390Z,96443.72
2023-04-16T11:22:47.849Z,96434.84
2023-04-16T11:25:39.491Z,96442.97
2023-04-16T11:28:06.080Z,96430.34
2023-04-16T11:30:38.283Z,96431.25
2023-04-16T11:33:09.703Z,96427.69
2023-04-16T11:35:36.425Z,96417.53
2023-04-16T11:38:03.013Z,96400.53
2023-04-16T11:40:31.252Z,96375.50
2023-04-16T11:43:12.771Z,96416.72
2023-04-16T11:45:39.336Z,96373.75
2023-04-16T11:48:06.186Z,96400.53
2023-04-16T11:50:32.808Z,96394.09
2023-04-16T11:53:04.763Z,96371.56
2023-04-16T11:55:31.516Z,96381.94
2023-04-16T11:57:58.164Z,96391.94
2023-04-16T12:00:25.094Z,96375.94
2023-04-16T12:02:52.958Z,96375.25
2023-04-16T12:05:32.063Z,96376.06
2023-04-16T12:07:59.985Z,96371.06
2023-04-16T12:10:27.475Z,96367.44
2023-04-16T12:12:54.299Z,96365.47
2023-04-16T12:15:21.032Z,96330.41
2023-04-16T12:17:48.086Z,96359.06
2023-04-16T12:20:15.825Z,96365.97
2023-04-16T12:22:48.090Z,96357.28
2023-04-16T12:25:16.845Z,96347.03
2023-04-16T12:27:48.201Z,96348.53
2023-04-16T12:30:16.959Z,96349.66
2023-04-16T12:32:45.603Z,96349.31
2023-04-16T12:35:12.914Z,96335.47
2023-04-16T12:37:40.356Z,96343.09
2023-04-16T12:40:07.381Z,96311.34
2023-04-16T12:42:37.467Z,96327.69
2023-04-16T12:45:05.375Z,96338.56
2023-04-16T12:47:32.658Z,96290.34
2023-04-16T12:49:59.513Z,96342.75
2023-04-16T12:52:26.591Z,96322.91
2023-04-16T12:54:53.491Z,96282.75
2023-04-16T12:57:20.191Z,96295.34
2023-04-16T12:59:47.157Z,96309.47
2023-04-16T13:02:14.010Z,96284.00
2023-04-16T13:04:41.021Z,96298.19
2023-04-16T13:07:08.144Z,96278.28
2023-04-16T13:09:34.916Z,96288.22
2023-04-16T13:12:01.647Z,96283.53
2023-04-16T13:14:28.280Z,96238.28
2023-04-16T13:16:54.890Z,96231.88
2023-04-16T13:19:21.531Z,96283.41
2023-04-16T13:21:48.191Z,96277.44
2023-04-16T13:24:21.422Z,96266.44
2023-04-16T13:26:48.052Z,96276.75
2023-04-16T13:29:14.730Z,96269.78
2023-04-16T13:31:41.623Z,96257.09
2023-04-16T13:34:15.891Z,96267.75
2023-04-16T13:36:42.454Z,96252.56
2023-04-16T13:39:12.064Z,96251.31
2023-04-16T13:41:39.106Z,96251.75
2023-04-16T13:44:06.422Z,96252.66
2023-04-16T13:46:33.689Z,96252.56
2023-04-16T13:49:00.647Z,96243.66
2023-04-16T13:51:27.892Z,96243.19
2023-04-16T13:53:56.044Z,96197.22
2023-04-16T13:56:22.615Z,96260.31
2023-04-16T13:58:49.546Z,96266.09
2023-04-16T14:01:17.317Z,96274.78
2023-04-16T14:03:44.120Z,96274.25
2023-04-16T14:06:11.093Z,96266.84
2023-04-16T14:08:38.487Z,96280.28
2023-04-16T14:11:06.489Z,96282.16
2023-04-16T14:13:33.308Z,96281.53
2023-04-16T14:16:00.051Z,96284.25
2023-04-16T14:18:26.677Z,96290.41
2023-04-16T14:20:53.332Z,96332.31
2023-04-16T14:23:19.896Z,96286.19
2023-04-16T14:25:46.571Z,96288.88
2023-04-16T14:28:15.530Z,96291.50
2023-04-16T14:30:42.395Z,96267.56
2023-04-16T14:33:09.282Z,96284.97
2023-04-16T14:35:36.107Z,96284.88
2023-04-16T14:38:02.961Z,96292.38
2023-04-16T14:40:29.993Z,96292.56
2023-04-16T14:42:56.528Z,96297.22
2023-04-16T14:45:25.406Z,96293.56
2023-04-16T14:47:51.975Z,96293.22
2023-04-16T14:50:18.584Z,96298.56
2023-04-16T14:52:45.447Z,96294.38
2023-04-16T14:55:12.108Z,96297.72
2023-04-16T14:57:39.041Z,96297.03
2023-04-16T15:00:11.782Z,96300.91
2023-04-16T15:02:38.631Z,96306.88
2023-04-16T15:05:07.911Z,96299.34
2023-04-16T15:07:34.571Z,96295.06
2023-04-16T15:10:01.140Z,96281.63
2023-04-16T15:12:27.846Z,96285.22
2023-04-16T15:14:54.477Z,96302.50
2023-04-16T15:17:21.570Z,96301.72
2023-04-16T15:19:48.320Z,96308.13
2023-04-16T15:22:15.378Z,96278.31
2023-04-16T15:24:42.038Z,96304.59
2023-04-16T15:27:11.550Z,96307.94
2023-04-16T15:29:38.876Z,96321.84
2023-04-16T15:32:06.993Z,96321.13
2023-04-16T15:34:33.592Z,96316.72
2023-04-16T15:37:00.350Z,96295.34
2023-04-16T15:39:26.978Z,96314.94
2023-04-16T15:42:01.463Z,96319.66
2023-04-16T15:44:31.097Z,96322.31
2023-04-16T15:46:57.826Z,96321.72
2023-04-16T15:49:24.844Z,96300.56
2023-04-16T15:51:52.093Z,96338.47
2023-04-16T15:54:18.885Z,96275.41
2023-04-16T15:56:46.702Z,96319.25
2023-04-16T15:59:13.734Z,96330.03
2023-04-16T16:01:40.883Z,96255.91
2023-04-16T16:04:08.093Z,96326.88
2023-04-16T16:06:35.284Z,96330.25
2023-04-16T16:09:01.892Z,96313.19
2023-04-16T16:11:28.543Z,96319.66
2023-04-16T16:13:55.386Z,96299.00
2023-04-16T16:16:22.370Z,96316.34
2023-04-16T16:18:49.003Z,96326.25
2023-04-16T16:21:16.157Z,96287.75
2023-04-16T16:23:42.739Z,96326.06
2023-04-16T16:26:09.401Z,96324.38
2023-04-16T16:28:39.089Z,96259.72
2023-04-16T16:31:06.099Z,96304.94
2023-04-16T16:33:33.142Z,96337.34
2023-04-16T16:35:59.796Z,96330.78
2023-04-16T16:38:26.432Z,96320.88
2023-04-16T16:40:53.012Z,96379.84
2023-04-16T16:43:20.310Z,96278.88
2023-04-16T16:45:47.231Z,96333.38
2023-04-16T16:48:13.869Z,96336.88
2023-04-16T16:50:40.604Z,96291.56
2023-04-16T16:53:07.478Z,96349.72
2023-04-16T16:55:35.175Z,96347.19
2023-04-16T16:58:01.845Z,96346.34
2023-04-16T17:00:28.534Z,96349.72
2023-04-16T17:02:55.477Z,96333.00
2023-04-16T17:05:22.387Z,96307.53
2023-04-16T17:07:49.038Z,96344.56
2023-04-16T17:10:21.621Z,96351.75
2023-04-16T17:12:49.103Z,96349.66
2023-04-16T17:15:16.897Z,96306.44
2023-04-16T17:17:44.634Z,96339.56
2023-04-16T17:20:12.493Z,96365.16
2023-04-16T17:22:40.254Z,96367.81
2023-04-16T17:25:10.575Z,96365.50
2023-04-16T17:27:37.191Z,96362.38
2023-04-16T17:30:05.770Z,96368.88
2023-04-16T17:32:33.132Z,96369.22
2023-04-16T17:35:01.126Z,96375.72
2023-04-16T17:37:28.078Z,96310.41
2023-04-16T17:39:54.704Z,96379.00
2023-04-16T17:42:21.735Z,96378.00
2023-04-16T17:44:48.399Z,96386.78
2023-04-16T17:47:15.000Z,96310.38
2023-04-16T17:49:41.654Z,96403.31
2023-04-16T17:52:08.272Z,96377.13
2023-04-16T17:54:34.891Z,96340.00
2023-04-16T17:57:02.122Z,96388.47
2023-04-16T17:59:28.935Z,96422.78
2023-04-16T18:01:56.622Z,96406.06
2023-04-16T18:04:23.654Z,96401.41
2023-04-16T18:06:50.508Z,96417.81
2023-04-16T18:09:17.890Z,96422.53
2023-04-16T18:11:44.562Z,96419.03
2023-04-16T18:14:13.835Z,96125.50
2023-04-16T18:16:41.874Z,96430.69
2023-04-16T18:19:08.529Z,96430.00
2023-04-16T18:21:35.820Z,96435.56
2023-04-16T18:24:03.546Z,96427.72
2023-04-16T18:26:30.278Z,96431.59
2023-04-16T18:28:57.272Z,96444.28
2023-04-16T18:31:23.888Z,96108.53
2023-04-16T18:33:57.524Z,96425.25
2023-04-16T18:36:26.701Z,96437.91
2023-04-16T18:39:15.504Z,96439.81
2023-04-16T18:41:41.684Z,96388.03
2023-04-16T18:44:10.762Z,96450.75
2023-04-16T18:46:37.406Z,96432.44
2023-04-16T18:49:04.083Z,96444.34
2023-04-16T18:51:30.844Z,96328.78
2023-04-16T18:53:57.444Z,96104.34
2023-04-16T18:56:24.101Z,96449.22
2023-04-16T18:58:50.720Z,96443.66
2023-04-16T19:01:18.898Z,96402.50
2023-04-16T19:03:47.515Z,96378.63
2023-04-16T19:06:14.301Z,96363.84
2023-04-16T19:08:40.925Z,96453.47
2023-04-16T19:11:07.562Z,96451.91
2023-04-16T19:13:34.302Z,96440.78
2023-04-16T19:16:02.643Z,96424.16
2023-04-16T19:18:29.272Z,96268.03
2023-04-16T19:21:00.154Z,96451.13
2023-04-16T19:23:27.652Z,96445.28
2023-04-16T19:25:56.302Z,96457.66
2023-04-16T19:28:23.666Z,96458.31
2023-04-16T19:30:53.856Z,96444.81
2023-04-16T19:33:20.784Z,96456.28
2023-04-16T19:35:47.554Z,96430.13
2023-04-16T19:38:14.369Z,96370.22
2023-04-16T19:40:43.968Z,96459.03
2023-04-16T19:43:10.661Z,96441.94
2023-04-16T19:45:42.998Z,96457.84
2023-04-16T19:48:09.872Z,96457.81
2023-04-16T19:50:39.608Z,96445.13
2023-04-16T19:53:06.375Z,96458.69
2023-04-16T19:55:33.046Z,96436.09
2023-04-16T19:58:05.698Z,96460.28
2023-04-16T20:00:42.556Z,96452.34
2023-04-16T20:03:09.829Z,96438.53
2023-04-16T20:05:36.467Z,96453.56
2023-04-16T20:08:03.072Z,96404.81
2023-04-16T20:10:31.393Z,96458.34
2023-04-16T20:12:58.188Z,96456.75
2023-04-16T20:15:24.828Z,96452.81
2023-04-16T20:17:52.299Z,96460.03
2023-04-16T20:20:19.070Z,96442.53
2023-04-16T20:22:45.825Z,96436.19
2023-04-16T20:25:14.361Z,96440.16
2023-04-16T20:27:41.174Z,96413.97
2023-04-16T20:30:08.315Z,96455.31
2023-04-16T20:32:34.941Z,96460.84
2023-04-16T20:35:02.074Z,96459.25
2023-04-16T20:37:29.138Z,96459.66
2023-04-16T20:39:56.320Z,96450.16
2023-04-16T20:42:23.517Z,96445.78
2023-04-16T20:44:56.450Z,96455.31
2023-04-16T20:47:23.901Z,96448.16
2023-04-16T20:49:52.888Z,96450.53
2023-04-16T20:52:19.767Z,96451.31
2023-04-16T20:54:47.221Z,96450.47
2023-04-16T20:57:14.086Z,96451.28
2023-04-16T20:59:40.728Z,96453.25
2023-04-16T21:02:07.949Z,96456.41
2023-04-16T21:04:34.818Z,96383.00
2023-04-16T21:07:04.206Z,96438.19
2023-04-16T21:09:31.553Z,96450.84
2023-04-16T21:11:58.141Z,96463.13
2023-04-16T21:14:24.744Z,96453.19
2023-04-16T21:16:51.325Z,96448.03
2023-04-16T21:19:17.997Z,96451.19
2023-04-16T21:21:44.531Z,96452.78
2023-04-16T21:24:11.201Z,96444.09
2023-04-16T21:26:37.811Z,96410.06
2023-04-16T21:29:04.423Z,96389.41
2023-04-16T21:31:31.059Z,96456.06
2023-04-16T21:33:57.777Z,96459.28
2023-04-16T21:36:26.612Z,96440.59
2023-04-16T21:38:53.197Z,96431.47
2023-04-16T21:41:19.779Z,96429.13
2023-04-16T21:43:46.380Z,96453.31
2023-04-16T21:46:13.033Z,96431.91
2023-04-16T21:48:39.610Z,96452.13
2023-04-16T21:51:06.870Z,96444.19
2023-04-16T21:53:34.120Z,96441.81
2023-04-16T21:56:02.735Z,96445.78
2023-04-16T21:58:29.461Z,96404.47
2023-04-16T22:00:56.391Z,96440.19
2023-04-16T22:03:27.672Z,96386.13
2023-04-16T22:06:03.320Z,96436.81
2023-04-16T22:08:30.286Z,96446.31
2023-04-16T22:11:01.917Z,96447.13
2023-04-16T22:13:32.437Z,96438.84
2023-04-16T22:16:03.325Z,96390.38
2023-04-16T22:18:33.119Z,96422.53
2023-04-16T22:21:00.365Z,96405.03
2023-04-16T22:23:27.068Z,96438.34
2023-04-16T22:25:54.878Z,96400.13
2023-04-16T22:28:21.741Z,96412.78
2023-04-16T22:30:48.736Z,96435.84
2023-04-16T22:33:15.701Z,96433.38
2023-04-16T22:35:42.368Z,96430.09
2023-04-16T22:38:09.066Z,96399.09
2023-04-16T22:40:35.787Z,96382.50
2023-04-16T22:43:02.333Z,96417.16
2023-04-16T22:45:29.350Z,96349.63
2023-04-16T22:47:55.952Z,96416.78
2023-04-16T22:50:23.237Z,96422.34
2023-04-16T22:52:49.945Z,96361.22
2023-04-16T22:55:16.892Z,96424.78
2023-04-16T22:57:43.499Z,96422.78
2023-04-16T23:00:16.057Z,96324.06
2023-04-16T23:02:43.303Z,96417.72
2023-04-16T23:05:10.419Z,96415.38
2023-04-16T23:07:37.090Z,96412.94
2023-04-16T23:10:04.241Z,96414.56
